sensor_id;sensor_type;location;lat;lon;timestamp;temperature;humidity
53045;DHT22;38930;52.766;6.884;2023-03-21T00:00:44;8.90;99.90
53045;DHT22;38930;52.766;6.884;2023-03-21T00:03:10;8.90;99.90
53045;DHT22;38930;52.766;6.884;2023-03-21T00:05:40;8.90;99.90
53045;DHT22;38930;52.766;6.884;2023-03-21T00:08:06;8.90;99.90
53045;DHT22;38930;52.766;6.884;2023-03-21T00:10:31;9.10;99.90
53045;DHT22;38930;52.766;6.884;2023-03-21T00:12:57;8.90;99.90
53045;DHT22;38930;52.766;6.884;2023-03-21T00:15:24;8.80;99.90
53045;DHT22;38930;52.766;6.884;2023-03-21T00:17:55;9.40;99.90
53045;DHT22;38930;52.766;6.884;2023-03-21T00:20:29;8.90;99.90
53045;DHT22;38930;52.766;6.884;2023-03-21T00:22:55;8.90;99.90
53045;DHT22;38930;52.766;6.884;2023-03-21T00:25:20;8.90;99.90
53045;DHT22;38930;52.766;6.884;2023-03-21T00:27:46;8.90;99.90
53045;DHT22;38930;52.766;6.884;2023-03-21T00:30:12;9.30;99.90
53045;DHT22;38930;52.766;6.884;2023-03-21T00:32:38;8.90;99.90
53045;DHT22;38930;52.766;6.884;2023-03-21T00:35:04;9.00;99.90
53045;DHT22;38930;52.766;6.884;2023-03-21T00:37:29;8.90;99.90
53045;DHT22;38930;52.766;6.884;2023-03-21T00:39:55;8.90;99.90
53045;DHT22;38930;52.766;6.884;2023-03-21T00:42:20;8.90;99.90
53045;DHT22;38930;52.766;6.884;2023-03-21T00:44:46;8.90;99.90
53045;DHT22;38930;52.766;6.884;2023-03-21T00:47:12;9.40;99.90
53045;DHT22;38930;52.766;6.884;2023-03-21T00:49:38;9.00;99.90
53045;DHT22;38930;52.766;6.884;2023-03-21T00:52:09;9.00;99.90
53045;DHT22;38930;52.766;6.884;2023-03-21T00:54:35;8.90;99.90
53045;DHT22;38930;52.766;6.884;2023-03-21T00:57:02;8.90;99.90
53045;DHT22;38930;52.766;6.884;2023-03-21T00:59:28;8.90;99.90
53045;DHT22;38930;52.766;6.884;2023-03-21T01:01:54;9.40;99.90
53045;DHT22;38930;52.766;6.884;2023-03-21T01:04:22;9.00;99.90
53045;DHT22;38930;52.766;6.884;2023-03-21T01:06:51;9.00;99.90
53045;DHT22;38930;52.766;6.884;2023-03-21T01:09:20;9.00;99.90
53045;DHT22;38930;52.766;6.884;2023-03-21T01:11:46;9.00;99.90
53045;DHT22;38930;52.766;6.884;2023-03-21T01:14:14;9.00;99.90
53045;DHT22;38930;52.766;6.884;2023-03-21T01:16:40;9.00;99.90
53045;DHT22;38930;52.766;6.884;2023-03-21T01:19:08;9.00;99.90
53045;DHT22;38930;52.766;6.884;2023-03-21T01:21:34;9.50;99.90
53045;DHT22;38930;52.766;6.884;2023-03-21T01:24:01;9.00;99.90
53045;DHT22;38930;52.766;6.884;2023-03-21T01:26:27;9.00;99.90
53045;DHT22;38930;52.766;6.884;2023-03-21T01:28:52;9.30;99.90
53045;DHT22;38930;52.766;6.884;2023-03-21T01:31:18;9.10;99.90
53045;DHT22;38930;52.766;6.884;2023-03-21T01:33:45;9.00;99.90
53045;DHT22;38930;52.766;6.884;2023-03-21T01:36:22;9.10;99.90
53045;DHT22;38930;52.766;6.884;2023-03-21T01:38:49;9.10;99.90
53045;DHT22;38930;52.766;6.884;2023-03-21T01:41:37;9.10;99.90
53045;DHT22;38930;52.766;6.884;2023-03-21T01:44:03;9.10;99.90
53045;DHT22;38930;52.766;6.884;2023-03-21T01:46:41;9.10;99.90
53045;DHT22;38930;52.766;6.884;2023-03-21T01:49:19;9.10;99.90
53045;DHT22;38930;52.766;6.884;2023-03-21T01:51:57;9.10;99.90
53045;DHT22;38930;52.766;6.884;2023-03-21T01:54:32;9.10;99.90
53045;DHT22;38930;52.766;6.884;2023-03-21T01:57:03;9.10;99.90
53045;DHT22;38930;52.766;6.884;2023-03-21T01:59:37;9.10;99.90
53045;DHT22;38930;52.766;6.884;2023-03-21T02:02:09;9.20;99.90
53045;DHT22;38930;52.766;6.884;2023-03-21T02:04:36;9.50;99.90
53045;DHT22;38930;52.766;6.884;2023-03-21T02:07:12;9.20;99.90
53045;DHT22;38930;52.766;6.884;2023-03-21T02:09:41;9.50;99.90
53045;DHT22;38930;52.766;6.884;2023-03-21T02:12:07;9.20;99.90
53045;DHT22;38930;52.766;6.884;2023-03-21T02:14:35;9.20;99.90
53045;DHT22;38930;52.766;6.884;2023-03-21T02:27:46;9.20;99.90
53045;DHT22;38930;52.766;6.884;2023-03-21T02:30:43;9.20;99.90
53045;DHT22;38930;52.766;6.884;2023-03-21T02:36:27;9.20;99.90
53045;DHT22;38930;52.766;6.884;2023-03-21T02:41:40;9.30;99.90
53045;DHT22;38930;52.766;6.884;2023-03-21T02:44:23;9.30;99.90
53045;DHT22;38930;52.766;6.884;2023-03-21T02:46:58;9.20;99.90
53045;DHT22;38930;52.766;6.884;2023-03-21T02:52:17;9.20;99.90
53045;DHT22;38930;52.766;6.884;2023-03-21T02:54:45;9.30;99.90
53045;DHT22;38930;52.766;6.884;2023-03-21T02:57:13;9.30;99.90
53045;DHT22;38930;52.766;6.884;2023-03-21T02:59:41;9.40;99.90
53045;DHT22;38930;52.766;6.884;2023-03-21T03:02:07;9.30;99.90
53045;DHT22;38930;52.766;6.884;2023-03-21T03:04:33;9.60;99.90
53045;DHT22;38930;52.766;6.884;2023-03-21T03:07:12;9.30;99.90
53045;DHT22;38930;52.766;6.884;2023-03-21T03:09:58;9.30;99.90
53045;DHT22;38930;52.766;6.884;2023-03-21T03:12:57;9.30;99.90
53045;DHT22;38930;52.766;6.884;2023-03-21T03:23:44;9.30;99.90
53045;DHT22;38930;52.766;6.884;2023-03-21T03:26:17;9.30;99.90
53045;DHT22;38930;52.766;6.884;2023-03-21T03:28:51;9.30;99.90
53045;DHT22;38930;52.766;6.884;2023-03-21T03:31:22;9.30;99.90
53045;DHT22;38930;52.766;6.884;2023-03-21T03:33:52;9.30;99.90
53045;DHT22;38930;52.766;6.884;2023-03-21T03:36:19;9.20;99.90
53045;DHT22;38930;52.766;6.884;2023-03-21T03:38:48;9.20;99.90
53045;DHT22;38930;52.766;6.884;2023-03-21T03:41:23;9.50;99.90
53045;DHT22;38930;52.766;6.884;2023-03-21T03:43:53;9.20;99.90
53045;DHT22;38930;52.766;6.884;2023-03-21T03:46:29;9.20;99.90
53045;DHT22;38930;52.766;6.884;2023-03-21T03:49:02;9.20;99.90
53045;DHT22;38930;52.766;6.884;2023-03-21T03:51:38;9.20;99.90
53045;DHT22;38930;52.766;6.884;2023-03-21T03:54:11;9.30;99.90
53045;DHT22;38930;52.766;6.884;2023-03-21T03:56:38;9.30;99.90
53045;DHT22;38930;52.766;6.884;2023-03-21T03:59:04;9.20;99.90
53045;DHT22;38930;52.766;6.884;2023-03-21T04:01:32;9.20;99.90
53045;DHT22;38930;52.766;6.884;2023-03-21T04:03:58;9.20;99.90
53045;DHT22;38930;52.766;6.884;2023-03-21T04:06:25;9.20;99.90
53045;DHT22;38930;52.766;6.884;2023-03-21T04:08:53;9.20;99.90
53045;DHT22;38930;52.766;6.884;2023-03-21T04:11:21;9.30;99.90
53045;DHT22;38930;52.766;6.884;2023-03-21T04:13:47;9.20;99.90
53045;DHT22;38930;52.766;6.884;2023-03-21T04:16:12;9.20;99.90
53045;DHT22;38930;52.766;6.884;2023-03-21T04:18:39;9.20;99.90
53045;DHT22;38930;52.766;6.884;2023-03-21T04:21:12;9.20;99.90
53045;DHT22;38930;52.766;6.884;2023-03-21T04:23:38;9.20;99.90
53045;DHT22;38930;52.766;6.884;2023-03-21T04:26:05;9.40;99.90
53045;DHT22;38930;52.766;6.884;2023-03-21T04:28:31;9.10;99.90
53045;DHT22;38930;52.766;6.884;2023-03-21T04:30:58;9.10;99.90
53045;DHT22;38930;52.766;6.884;2023-03-21T04:33:23;9.40;99.90
53045;DHT22;38930;52.766;6.884;2023-03-21T04:35:51;9.10;99.90
53045;DHT22;38930;52.766;6.884;2023-03-21T04:38:22;9.10;99.90
53045;DHT22;38930;52.766;6.884;2023-03-21T04:40:47;9.10;99.90
53045;DHT22;38930;52.766;6.884;2023-03-21T04:43:13;9.10;99.90
53045;DHT22;38930;52.766;6.884;2023-03-21T04:45:39;9.10;99.90
53045;DHT22;38930;52.766;6.884;2023-03-21T04:48:05;9.70;99.90
53045;DHT22;38930;52.766;6.884;2023-03-21T04:50:30;9.10;99.90
53045;DHT22;38930;52.766;6.884;2023-03-21T04:52:56;9.10;99.90
53045;DHT22;38930;52.766;6.884;2023-03-21T04:55:22;9.10;99.90
53045;DHT22;38930;52.766;6.884;2023-03-21T04:57:49;9.10;99.90
53045;DHT22;38930;52.766;6.884;2023-03-21T05:00:15;9.10;99.90
53045;DHT22;38930;52.766;6.884;2023-03-21T05:02:41;9.10;99.90
53045;DHT22;38930;52.766;6.884;2023-03-21T05:05:07;9.10;99.90
53045;DHT22;38930;52.766;6.884;2023-03-21T05:07:39;9.10;99.90
53045;DHT22;38930;52.766;6.884;2023-03-21T05:10:06;9.20;99.90
53045;DHT22;38930;52.766;6.884;2023-03-21T05:12:32;9.10;99.90
53045;DHT22;38930;52.766;6.884;2023-03-21T05:14:58;9.10;99.90
53045;DHT22;38930;52.766;6.884;2023-03-21T05:17:23;9.10;99.90
53045;DHT22;38930;52.766;6.884;2023-03-21T05:19:53;9.10;99.90
53045;DHT22;38930;52.766;6.884;2023-03-21T05:22:21;9.10;99.90
53045;DHT22;38930;52.766;6.884;2023-03-21T05:24:49;9.60;99.90
53045;DHT22;38930;52.766;6.884;2023-03-21T05:27:18;9.00;99.90
53045;DHT22;38930;52.766;6.884;2023-03-21T05:30:10;9.00;99.90
53045;DHT22;38930;52.766;6.884;2023-03-21T05:32:36;9.00;99.90
53045;DHT22;38930;52.766;6.884;2023-03-21T05:35:02;9.70;99.90
53045;DHT22;38930;52.766;6.884;2023-03-21T05:37:28;9.00;99.90
53045;DHT22;38930;52.766;6.884;2023-03-21T05:39:53;9.10;99.90
53045;DHT22;38930;52.766;6.884;2023-03-21T05:42:19;9.00;99.90
53045;DHT22;38930;52.766;6.884;2023-03-21T05:44:45;9.00;99.90
53045;DHT22;38930;52.766;6.884;2023-03-21T05:47:13;9.00;99.90
53045;DHT22;38930;52.766;6.884;2023-03-21T05:49:38;8.50;99.90
53045;DHT22;38930;52.766;6.884;2023-03-21T05:52:04;9.00;99.90
53045;DHT22;38930;52.766;6.884;2023-03-21T05:54:30;9.00;99.90
53045;DHT22;38930;52.766;6.884;2023-03-21T05:56:55;9.50;99.90
53045;DHT22;38930;52.766;6.884;2023-03-21T05:59:21;9.00;99.90
53045;DHT22;38930;52.766;6.884;2023-03-21T06:01:47;9.00;99.90
53045;DHT22;38930;52.766;6.884;2023-03-21T06:04:12;9.00;99.90
53045;DHT22;38930;52.766;6.884;2023-03-21T06:06:38;9.20;99.90
53045;DHT22;38930;52.766;6.884;2023-03-21T06:09:03;9.00;99.90
53045;DHT22;38930;52.766;6.884;2023-03-21T06:11:32;9.00;99.90
53045;DHT22;38930;52.766;6.884;2023-03-21T06:13:59;9.00;99.90
53045;DHT22;38930;52.766;6.884;2023-03-21T06:16:24;9.00;99.90
53045;DHT22;38930;52.766;6.884;2023-03-21T06:18:50;9.60;99.90
53045;DHT22;38930;52.766;6.884;2023-03-21T06:21:16;9.00;99.90
53045;DHT22;38930;52.766;6.884;2023-03-21T06:23:41;9.00;99.90
53045;DHT22;38930;52.766;6.884;2023-03-21T06:26:07;9.10;99.90
53045;DHT22;38930;52.766;6.884;2023-03-21T06:28:32;9.10;99.90
53045;DHT22;38930;52.766;6.884;2023-03-21T06:30:58;9.00;99.90
53045;DHT22;38930;52.766;6.884;2023-03-21T06:33:24;9.10;99.90
53045;DHT22;38930;52.766;6.884;2023-03-21T06:35:54;9.30;99.90
53045;DHT22;38930;52.766;6.884;2023-03-21T06:38:20;9.40;99.90
53045;DHT22;38930;52.766;6.884;2023-03-21T06:40:46;9.10;99.90
53045;DHT22;38930;52.766;6.884;2023-03-21T06:43:12;9.10;99.90
53045;DHT22;38930;52.766;6.884;2023-03-21T06:45:38;9.10;99.90
53045;DHT22;38930;52.766;6.884;2023-03-21T06:48:04;9.10;99.90
53045;DHT22;38930;52.766;6.884;2023-03-21T06:50:29;9.10;99.90
53045;DHT22;38930;52.766;6.884;2023-03-21T06:52:55;9.20;99.90
53045;DHT22;38930;52.766;6.884;2023-03-21T06:55:22;9.20;99.90
53045;DHT22;38930;52.766;6.884;2023-03-21T06:57:55;9.40;99.90
53045;DHT22;38930;52.766;6.884;2023-03-21T07:00:21;9.20;99.90
53045;DHT22;38930;52.766;6.884;2023-03-21T07:02:48;9.20;99.90
53045;DHT22;38930;52.766;6.884;2023-03-21T07:05:14;9.20;99.90
53045;DHT22;38930;52.766;6.884;2023-03-21T07:07:40;9.30;99.90
53045;DHT22;38930;52.766;6.884;2023-03-21T07:10:06;9.20;99.90
53045;DHT22;38930;52.766;6.884;2023-03-21T07:12:32;9.30;99.90
53045;DHT22;38930;52.766;6.884;2023-03-21T07:15:00;9.30;99.90
53045;DHT22;38930;52.766;6.884;2023-03-21T07:17:26;9.30;99.90
53045;DHT22;38930;52.766;6.884;2023-03-21T07:19:52;9.30;99.90
53045;DHT22;38930;52.766;6.884;2023-03-21T07:22:18;9.30;99.90
53045;DHT22;38930;52.766;6.884;2023-03-21T07:24:44;10.00;99.90
53045;DHT22;38930;52.766;6.884;2023-03-21T07:27:13;9.30;99.90
53045;DHT22;38930;52.766;6.884;2023-03-21T07:29:39;9.30;99.90
53045;DHT22;38930;52.766;6.884;2023-03-21T07:32:05;9.50;99.90
53045;DHT22;38930;52.766;6.884;2023-03-21T07:34:31;9.30;99.90
53045;DHT22;38930;52.766;6.884;2023-03-21T07:36:58;9.30;99.90
53045;DHT22;38930;52.766;6.884;2023-03-21T07:39:25;9.30;99.90
53045;DHT22;38930;52.766;6.884;2023-03-21T07:41:51;9.50;99.90
53045;DHT22;38930;52.766;6.884;2023-03-21T07:44:23;9.40;99.90
53045;DHT22;38930;52.766;6.884;2023-03-21T07:46:49;9.30;99.90
53045;DHT22;38930;52.766;6.884;2023-03-21T07:49:14;9.30;99.90
53045;DHT22;38930;52.766;6.884;2023-03-21T07:51:40;9.30;99.90
53045;DHT22;38930;52.766;6.884;2023-03-21T07:54:06;9.30;99.90
53045;DHT22;38930;52.766;6.884;2023-03-21T07:56:31;9.30;99.90
53045;DHT22;38930;52.766;6.884;2023-03-21T07:58:57;9.30;99.90
53045;DHT22;38930;52.766;6.884;2023-03-21T08:01:24;9.40;99.90
53045;DHT22;38930;52.766;6.884;2023-03-21T08:03:50;9.30;99.90
53045;DHT22;38930;52.766;6.884;2023-03-21T08:06:21;9.40;99.90
53045;DHT22;38930;52.766;6.884;2023-03-21T08:08:47;9.30;99.90
53045;DHT22;38930;52.766;6.884;2023-03-21T08:11:13;9.30;99.90
53045;DHT22;38930;52.766;6.884;2023-03-21T08:13:39;9.30;99.90
53045;DHT22;38930;52.766;6.884;2023-03-21T08:16:06;9.40;99.90
53045;DHT22;38930;52.766;6.884;2023-03-21T08:18:32;9.40;99.90
53045;DHT22;38930;52.766;6.884;2023-03-21T08:20:58;10.00;99.90
53045;DHT22;38930;52.766;6.884;2023-03-21T08:23:24;9.40;99.90
53045;DHT22;38930;52.766;6.884;2023-03-21T08:25:54;9.50;99.90
53045;DHT22;38930;52.766;6.884;2023-03-21T08:28:21;9.50;99.90
53045;DHT22;38930;52.766;6.884;2023-03-21T08:30:47;9.40;99.90
53045;DHT22;38930;52.766;6.884;2023-03-21T08:33:13;9.50;99.90
53045;DHT22;38930;52.766;6.884;2023-03-21T08:35:39;9.40;99.90
53045;DHT22;38930;52.766;6.884;2023-03-21T08:38:05;9.50;99.90
53045;DHT22;38930;52.766;6.884;2023-03-21T08:40:31;9.50;99.90
53045;DHT22;38930;52.766;6.884;2023-03-21T08:42:56;9.60;99.90
53045;DHT22;38930;52.766;6.884;2023-03-21T08:45:22;9.50;99.90
53045;DHT22;38930;52.766;6.884;2023-03-21T08:47:49;9.50;99.90
53045;DHT22;38930;52.766;6.884;2023-03-21T08:50:18;9.60;99.90
53045;DHT22;38930;52.766;6.884;2023-03-21T08:52:44;9.60;99.90
53045;DHT22;38930;52.766;6.884;2023-03-21T08:55:10;9.70;99.90
53045;DHT22;38930;52.766;6.884;2023-03-21T08:57:36;9.80;99.90
53045;DHT22;38930;52.766;6.884;2023-03-21T09:00:04;9.90;99.90
53045;DHT22;38930;52.766;6.884;2023-03-21T09:02:37;9.80;99.90
53045;DHT22;38930;52.766;6.884;2023-03-21T09:05:03;9.80;99.90
53045;DHT22;38930;52.766;6.884;2023-03-21T09:07:30;9.80;99.90
53045;DHT22;38930;52.766;6.884;2023-03-21T09:09:59;9.80;99.90
53045;DHT22;38930;52.766;6.884;2023-03-21T09:12:25;9.80;99.90
53045;DHT22;38930;52.766;6.884;2023-03-21T09:14:50;9.70;99.90
53045;DHT22;38930;52.766;6.884;2023-03-21T09:17:18;9.80;99.90
53045;DHT22;38930;52.766;6.884;2023-03-21T09:19:44;9.80;99.90
53045;DHT22;38930;52.766;6.884;2023-03-21T09:22:12;9.80;99.90
53045;DHT22;38930;52.766;6.884;2023-03-21T09:24:45;9.80;99.90
53045;DHT22;38930;52.766;6.884;2023-03-21T09:27:12;9.90;99.90
53045;DHT22;38930;52.766;6.884;2023-03-21T09:29:38;9.90;99.90
53045;DHT22;38930;52.766;6.884;2023-03-21T09:32:07;9.90;99.90
53045;DHT22;38930;52.766;6.884;2023-03-21T09:34:33;9.90;99.90
53045;DHT22;38930;52.766;6.884;2023-03-21T09:37:02;9.90;99.90
53045;DHT22;38930;52.766;6.884;2023-03-21T09:39:27;10.00;99.90
53045;DHT22;38930;52.766;6.884;2023-03-21T09:42:12;10.00;99.90
53045;DHT22;38930;52.766;6.884;2023-03-21T09:47:31;10.00;99.90
53045;DHT22;38930;52.766;6.884;2023-03-21T09:50:17;10.00;99.90
53045;DHT22;38930;52.766;6.884;2023-03-21T09:52:53;10.10;99.90
53045;DHT22;38930;52.766;6.884;2023-03-21T09:55:25;10.10;99.90
53045;DHT22;38930;52.766;6.884;2023-03-21T10:00:38;10.20;99.90
53045;DHT22;38930;52.766;6.884;2023-03-21T10:03:23;10.20;99.90
53045;DHT22;38930;52.766;6.884;2023-03-21T10:05:54;10.30;99.90
53045;DHT22;38930;52.766;6.884;2023-03-21T10:08:36;10.40;99.90
53045;DHT22;38930;52.766;6.884;2023-03-21T10:11:22;10.40;99.90
53045;DHT22;38930;52.766;6.884;2023-03-21T10:13:55;10.40;99.90
53045;DHT22;38930;52.766;6.884;2023-03-21T10:16:30;10.40;99.90
53045;DHT22;38930;52.766;6.884;2023-03-21T10:18:59;10.40;99.90
53045;DHT22;38930;52.766;6.884;2023-03-21T10:21:27;10.30;99.90
53045;DHT22;38930;52.766;6.884;2023-03-21T10:23:55;10.30;99.90
53045;DHT22;38930;52.766;6.884;2023-03-21T10:26:23;10.50;99.90
53045;DHT22;38930;52.766;6.884;2023-03-21T10:28:53;10.20;99.90
53045;DHT22;38930;52.766;6.884;2023-03-21T10:31:21;10.30;99.90
53045;DHT22;38930;52.766;6.884;2023-03-21T10:33:51;10.20;99.90
53045;DHT22;38930;52.766;6.884;2023-03-21T10:36:26;10.30;99.90
53045;DHT22;38930;52.766;6.884;2023-03-21T10:39:25;10.30;99.90
53045;DHT22;38930;52.766;6.884;2023-03-21T10:41:52;10.30;99.90
53045;DHT22;38930;52.766;6.884;2023-03-21T10:44:18;10.70;99.90
53045;DHT22;38930;52.766;6.884;2023-03-21T10:46:55;10.40;99.90
53045;DHT22;38930;52.766;6.884;2023-03-21T10:49:21;10.50;99.90
53045;DHT22;38930;52.766;6.884;2023-03-21T10:51:51;10.50;99.90
53045;DHT22;38930;52.766;6.884;2023-03-21T10:54:19;10.40;99.90
53045;DHT22;38930;52.766;6.884;2023-03-21T10:56:56;10.50;99.90
53045;DHT22;38930;52.766;6.884;2023-03-21T10:59:23;10.70;99.90
53045;DHT22;38930;52.766;6.884;2023-03-21T11:01:51;10.50;99.90
53045;DHT22;38930;52.766;6.884;2023-03-21T11:04:23;10.50;99.90
53045;DHT22;38930;52.766;6.884;2023-03-21T11:06:53;10.60;99.90
53045;DHT22;38930;52.766;6.884;2023-03-21T11:09:22;10.80;99.90
53045;DHT22;38930;52.766;6.884;2023-03-21T11:11:52;10.70;99.90
53045;DHT22;38930;52.766;6.884;2023-03-21T11:16:57;10.70;99.90
53045;DHT22;38930;52.766;6.884;2023-03-21T11:19:30;10.70;99.90
53045;DHT22;38930;52.766;6.884;2023-03-21T11:22:05;11.00;99.90
53045;DHT22;38930;52.766;6.884;2023-03-21T11:24:31;10.80;99.90
53045;DHT22;38930;52.766;6.884;2023-03-21T11:26:58;10.70;99.90
53045;DHT22;38930;52.766;6.884;2023-03-21T11:29:37;10.80;99.90
53045;DHT22;38930;52.766;6.884;2023-03-21T11:32:21;10.90;99.90
53045;DHT22;38930;52.766;6.884;2023-03-21T11:35:06;10.80;99.90
53045;DHT22;38930;52.766;6.884;2023-03-21T11:37:39;10.80;99.90
53045;DHT22;38930;52.766;6.884;2023-03-21T11:42:47;11.00;99.90
53045;DHT22;38930;52.766;6.884;2023-03-21T11:45:28;11.20;99.90
53045;DHT22;38930;52.766;6.884;2023-03-21T11:47:59;11.40;99.90
53045;DHT22;38930;52.766;6.884;2023-03-21T11:50:32;11.30;99.90
53045;DHT22;38930;52.766;6.884;2023-03-21T11:53:17;11.40;99.90
53045;DHT22;38930;52.766;6.884;2023-03-21T12:01:54;11.50;99.90
53045;DHT22;38930;52.766;6.884;2023-03-21T12:07:57;11.60;99.90
53045;DHT22;38930;52.766;6.884;2023-03-21T12:10:52;11.50;99.90
53045;DHT22;38930;52.766;6.884;2023-03-21T12:13:44;11.50;99.90
53045;DHT22;38930;52.766;6.884;2023-03-21T12:19:11;11.60;99.90
53045;DHT22;38930;52.766;6.884;2023-03-21T12:24:17;11.70;99.90
53045;DHT22;38930;52.766;6.884;2023-03-21T12:27:02;11.70;99.90
53045;DHT22;38930;52.766;6.884;2023-03-21T12:32:30;11.90;99.90
53045;DHT22;38930;52.766;6.884;2023-03-21T12:43:52;12.10;99.90
53045;DHT22;38930;52.766;6.884;2023-03-21T12:49:14;12.20;99.90
53045;DHT22;38930;52.766;6.884;2023-03-21T12:51:45;12.20;99.90
53045;DHT22;38930;52.766;6.884;2023-03-21T12:54:25;12.30;99.90
53045;DHT22;38930;52.766;6.884;2023-03-21T12:56:57;12.30;99.90
53045;DHT22;38930;52.766;6.884;2023-03-21T12:59:40;12.20;99.90
53045;DHT22;38930;52.766;6.884;2023-03-21T13:02:21;12.10;99.90
53045;DHT22;38930;52.766;6.884;2023-03-21T13:05:15;12.00;99.90
53045;DHT22;38930;52.766;6.884;2023-03-21T13:07:46;12.00;99.90
53045;DHT22;38930;52.766;6.884;2023-03-21T13:10:19;12.10;99.90
53045;DHT22;38930;52.766;6.884;2023-03-21T13:13:11;12.60;99.90
53045;DHT22;38930;52.766;6.884;2023-03-21T13:16:03;11.80;99.90
53045;DHT22;38930;52.766;6.884;2023-03-21T13:21:45;11.70;99.90
53045;DHT22;38930;52.766;6.884;2023-03-21T13:24:26;11.80;99.90
53045;DHT22;38930;52.766;6.884;2023-03-21T13:27:51;11.80;99.90
53045;DHT22;38930;52.766;6.884;2023-03-21T13:30:16;11.90;99.90
53045;DHT22;38930;52.766;6.884;2023-03-21T13:32:43;12.00;99.90
53045;DHT22;38930;52.766;6.884;2023-03-21T13:35:25;12.20;99.90
53045;DHT22;38930;52.766;6.884;2023-03-21T13:38:20;12.40;99.90
53045;DHT22;38930;52.766;6.884;2023-03-21T13:40:50;12.60;99.90
53045;DHT22;38930;52.766;6.884;2023-03-21T13:51:49;12.50;99.90
53045;DHT22;38930;52.766;6.884;2023-03-21T13:54:18;12.50;99.90
53045;DHT22;38930;52.766;6.884;2023-03-21T13:59:37;12.50;99.90
53045;DHT22;38930;52.766;6.884;2023-03-21T14:02:31;12.40;99.90
53045;DHT22;38930;52.766;6.884;2023-03-21T14:05:04;12.50;99.90
53045;DHT22;38930;52.766;6.884;2023-03-21T14:07:42;12.50;99.90
53045;DHT22;38930;52.766;6.884;2023-03-21T14:10:51;12.50;99.90
53045;DHT22;38930;52.766;6.884;2023-03-21T14:13:19;12.50;99.90
53045;DHT22;38930;52.766;6.884;2023-03-21T14:15:51;12.60;99.90
53045;DHT22;38930;52.766;6.884;2023-03-21T14:18:23;12.40;99.90
53045;DHT22;38930;52.766;6.884;2023-03-21T14:20:54;12.40;99.90
53045;DHT22;38930;52.766;6.884;2023-03-21T14:23:20;12.30;99.90
53045;DHT22;38930;52.766;6.884;2023-03-21T14:25:47;12.40;99.90
53045;DHT22;38930;52.766;6.884;2023-03-21T14:28:23;12.40;99.90
53045;DHT22;38930;52.766;6.884;2023-03-21T14:30:53;12.60;99.90
53045;DHT22;38930;52.766;6.884;2023-03-21T14:35:59;12.60;99.90
53045;DHT22;38930;52.766;6.884;2023-03-21T14:38:33;12.60;99.90
53045;DHT22;38930;52.766;6.884;2023-03-21T14:41:00;12.70;99.90
53045;DHT22;38930;52.766;6.884;2023-03-21T14:43:26;12.80;99.90
53045;DHT22;38930;52.766;6.884;2023-03-21T14:45:54;12.90;99.90
53045;DHT22;38930;52.766;6.884;2023-03-21T14:48:29;13.10;99.90
53045;DHT22;38930;52.766;6.884;2023-03-21T14:51:05;13.10;99.90
53045;DHT22;38930;52.766;6.884;2023-03-21T14:53:39;13.30;99.90
53045;DHT22;38930;52.766;6.884;2023-03-21T14:56:16;13.60;99.90
53045;DHT22;38930;52.766;6.884;2023-03-21T14:58:45;13.60;99.90
53045;DHT22;38930;52.766;6.884;2023-03-21T15:01:15;13.50;99.90
53045;DHT22;38930;52.766;6.884;2023-03-21T15:03:44;13.50;99.90
53045;DHT22;38930;52.766;6.884;2023-03-21T15:06:12;13.60;99.90
53045;DHT22;38930;52.766;6.884;2023-03-21T15:08:38;13.40;99.90
53045;DHT22;38930;52.766;6.884;2023-03-21T15:11:06;13.40;99.90
53045;DHT22;38930;52.766;6.884;2023-03-21T15:16:06;13.40;99.90
53045;DHT22;38930;52.766;6.884;2023-03-21T15:18:34;13.40;99.90
53045;DHT22;38930;52.766;6.884;2023-03-21T15:21:05;13.40;99.90
53045;DHT22;38930;52.766;6.884;2023-03-21T15:23:37;13.40;99.90
53045;DHT22;38930;52.766;6.884;2023-03-21T15:26:04;13.40;99.90
53045;DHT22;38930;52.766;6.884;2023-03-21T15:28:32;13.50;99.90
53045;DHT22;38930;52.766;6.884;2023-03-21T15:30:59;13.70;99.90
53045;DHT22;38930;52.766;6.884;2023-03-21T15:33:25;13.50;99.90
53045;DHT22;38930;52.766;6.884;2023-03-21T15:35:54;13.30;99.90
53045;DHT22;38930;52.766;6.884;2023-03-21T15:40:47;13.30;99.90
53045;DHT22;38930;52.766;6.884;2023-03-21T15:43:15;13.20;99.90
53045;DHT22;38930;52.766;6.884;2023-03-21T15:45:54;13.10;99.90
53045;DHT22;38930;52.766;6.884;2023-03-21T15:48:24;13.10;99.90
53045;DHT22;38930;52.766;6.884;2023-03-21T15:53:19;12.90;99.90
53045;DHT22;38930;52.766;6.884;2023-03-21T15:55:55;12.90;99.90
53045;DHT22;38930;52.766;6.884;2023-03-21T15:58:24;12.90;99.90
53045;DHT22;38930;52.766;6.884;2023-03-21T16:00:53;12.80;99.90
53045;DHT22;38930;52.766;6.884;2023-03-21T16:03:27;12.80;99.90
53045;DHT22;38930;52.766;6.884;2023-03-21T16:08:35;12.70;99.90
53045;DHT22;38930;52.766;6.884;2023-03-21T16:11:28;12.70;99.90
53045;DHT22;38930;52.766;6.884;2023-03-21T16:14:01;12.70;99.90
53045;DHT22;38930;52.766;6.884;2023-03-21T16:16:28;12.60;99.90
53045;DHT22;38930;52.766;6.884;2023-03-21T16:18:56;12.60;99.90
53045;DHT22;38930;52.766;6.884;2023-03-21T16:21:24;12.70;99.90
53045;DHT22;38930;52.766;6.884;2023-03-21T16:23:51;12.60;99.90
53045;DHT22;38930;52.766;6.884;2023-03-21T16:26:20;12.60;99.90
53045;DHT22;38930;52.766;6.884;2023-03-21T16:28:46;12.70;99.90
53045;DHT22;38930;52.766;6.884;2023-03-21T16:31:17;12.70;99.90
53045;DHT22;38930;52.766;6.884;2023-03-21T16:33:44;12.60;99.90
53045;DHT22;38930;52.766;6.884;2023-03-21T16:36:22;12.60;99.90
53045;DHT22;38930;52.766;6.884;2023-03-21T16:38:48;12.60;99.90
53045;DHT22;38930;52.766;6.884;2023-03-21T16:41:15;12.60;99.90
53045;DHT22;38930;52.766;6.884;2023-03-21T16:43:42;12.60;99.90
53045;DHT22;38930;52.766;6.884;2023-03-21T16:48:36;12.50;99.90
53045;DHT22;38930;52.766;6.884;2023-03-21T16:51:01;12.40;99.90
53045;DHT22;38930;52.766;6.884;2023-03-21T16:53:27;12.50;99.90
53045;DHT22;38930;52.766;6.884;2023-03-21T16:55:53;12.50;99.90
53045;DHT22;38930;52.766;6.884;2023-03-21T16:58:19;12.40;99.90
53045;DHT22;38930;52.766;6.884;2023-03-21T17:00:44;12.50;99.90
53045;DHT22;38930;52.766;6.884;2023-03-21T17:03:14;12.40;99.90
53045;DHT22;38930;52.766;6.884;2023-03-21T17:05:43;12.30;99.90
53045;DHT22;38930;52.766;6.884;2023-03-21T17:08:13;12.30;99.90
53045;DHT22;38930;52.766;6.884;2023-03-21T17:10:39;12.30;99.90
53045;DHT22;38930;52.766;6.884;2023-03-21T17:13:05;12.20;99.90
53045;DHT22;38930;52.766;6.884;2023-03-21T17:15:31;12.60;99.90
53045;DHT22;38930;52.766;6.884;2023-03-21T17:17:56;12.00;99.90
53045;DHT22;38930;52.766;6.884;2023-03-21T17:20:25;12.00;99.90
53045;DHT22;38930;52.766;6.884;2023-03-21T17:22:52;11.80;99.90
53045;DHT22;38930;52.766;6.884;2023-03-21T17:25:18;11.80;99.90
53045;DHT22;38930;52.766;6.884;2023-03-21T17:27:45;11.70;99.90
53045;DHT22;38930;52.766;6.884;2023-03-21T17:30:19;11.60;99.90
53045;DHT22;38930;52.766;6.884;2023-03-21T17:32:46;11.50;99.90
53045;DHT22;38930;52.766;6.884;2023-03-21T17:35:12;11.50;99.90